Orlando, FL (32810)

10:21 AM EST on December 26, 2014 (GMT -0500)
lockhart | Change Station
CLOSE
Current Station
Personal Weather Station
Location: Orlando, FL
Elevation: 105 ft
Nearby Weather Stations

Elev 105 ft 28.62 °N, 81.44 °W | Updated 2 seconds ago

Mostly Cloudy
Mostly Cloudy
61.7 °F
Feels Like 61.7 °F
N
0.7
Wind Variable Wind from NNE
Gusts 3.8 mph

Today
High -- | Low -- °F
--% Chance of Precip.
Yesterday
High -- | Low -- °F
Precip. -- in
7:16 AM 5:36 PM
Waxing Crescent, 26% visible
Pressure 30.27 in
Visibility 10.0 miles
Clouds Overcast 5500 ft
Dew Point 58 °F
Humidity 89%
Rainfall 0.00 in
Snow Depth Not available.
UV 1 out of 12
Pollen 8.00 out of 12
Air Quality Not available.
Flu Activity Not available.
METAR KORL 261453Z 03006KT 10SM OVC055 18/13 A3026 RMK AO2 SLP251 T01780128 53012

More Conditions Fewer Conditions

Pressure 30.27 in
Visibility 10.0 miles
Clouds Overcast 5500 ft
Dew Point 58 °F
Humidity 89%
Rainfall 0.00 in
Snow Depth Not available.
UV 1 out of 12
Pollen 8.00 out of 12
Air Quality Not available.
Flu Activity Not available.
METAR KORL 261453Z 03006KT 10SM OVC055 18/13 A3026 RMK AO2 SLP251 T01780128 53012

More Conditions Fewer Conditions

10-Day Weather Forecast

Almanac

Astronomy

Dec. 26, 2014 Rise Set
Actual Time
Civil Twilight
Nautical Twilight
Astronomical Twilight
Moon
Length of Visible Light
Length of Day
Tomorrow will be .
, % of the Moon is Illuminated

Today's Extremes

State Highs State Lows

Community

WunderPhotos

Upload Photos

1,780,609 photos uploaded!

WunderBlogs® & News

Nearby

Air Quality

  Air Quality AQ Index Pollutant
Not available.

Snow Depth

Station Depth Elevation

Earthquake Activity

City Distance Mag. Time & Date
Minimum magnitude displayed is 2.5.

Coastal Water Temperatures

Place Temperature

Nearby Weather Stations